createdAt,value
2023-04-18T00:01:10.018Z,99.90
2023-04-18T00:03:38.982Z,99.90
2023-04-18T00:06:06.946Z,99.90
2023-04-18T00:08:34.354Z,99.90
2023-04-18T00:11:03.702Z,99.90
2023-04-18T00:13:31.963Z,99.90
2023-04-18T00:15:59.523Z,99.90
2023-04-18T00:18:27.908Z,99.90
2023-04-18T00:20:56.208Z,99.90
2023-04-18T00:23:23.599Z,99.90
2023-04-18T00:25:50.996Z,99.90
2023-04-18T00:28:18.350Z,99.90
2023-04-18T00:30:45.916Z,99.90
2023-04-18T00:33:14.589Z,99.90
2023-04-18T00:35:44.281Z,99.90
2023-04-18T00:38:11.745Z,99.90
2023-04-18T00:40:41.146Z,99.90
2023-04-18T00:43:09.388Z,99.90
2023-04-18T00:45:37.087Z,99.90
2023-04-18T00:48:04.739Z,99.90
2023-04-18T00:50:32.786Z,99.90
2023-04-18T00:53:00.396Z,99.90
2023-04-18T00:55:28.886Z,99.90
2023-04-18T00:57:56.306Z,99.90
2023-04-18T01:00:25.738Z,99.90
2023-04-18T01:02:55.839Z,99.90
2023-04-18T01:05:23.935Z,99.90
2023-04-18T01:07:52.147Z,99.90
2023-04-18T01:10:20.403Z,99.90
2023-04-18T01:12:50.272Z,99.90
2023-04-18T01:15:17.718Z,99.90
2023-04-18T01:17:45.077Z,99.90
2023-04-18T01:20:13.797Z,99.90
2023-04-18T01:22:42.137Z,99.90
2023-04-18T01:25:10.112Z,99.90
2023-04-18T01:27:37.460Z,99.90
2023-04-18T01:30:05.445Z,99.90
2023-04-18T01:32:32.844Z,99.90
2023-04-18T01:35:00.298Z,99.90
2023-04-18T01:37:27.671Z,99.90
2023-04-18T01:39:55.085Z,99.90
2023-04-18T01:42:22.532Z,99.90
2023-04-18T01:44:49.926Z,99.90
2023-04-18T01:47:17.312Z,99.90
2023-04-18T01:49:48.159Z,99.90
2023-04-18T01:52:16.164Z,99.90
2023-04-18T01:54:43.586Z,99.90
2023-04-18T01:57:11.000Z,99.90
2023-04-18T01:59:38.799Z,99.90
2023-04-18T02:02:06.323Z,99.90
2023-04-18T02:04:33.835Z,99.90
2023-04-18T02:07:01.215Z,99.90
2023-04-18T02:09:28.602Z,99.90
2023-04-18T02:11:59.296Z,99.90
2023-04-18T02:14:28.012Z,99.90
2023-04-18T02:16:55.611Z,99.90
2023-04-18T02:19:24.300Z,99.90
2023-04-18T02:21:52.111Z,99.90
2023-04-18T02:24:19.884Z,99.90
2023-04-18T02:26:47.664Z,99.90
2023-04-18T02:29:15.103Z,99.90
2023-04-18T02:31:42.616Z,99.90
2023-04-18T02:34:10.122Z,99.90
2023-04-18T02:36:37.509Z,99.90
2023-04-18T02:39:04.922Z,99.90
2023-04-18T02:41:32.368Z,99.90
2023-04-18T02:43:59.824Z,99.90
2023-04-18T02:46:27.295Z,99.90
2023-04-18T02:48:54.805Z,99.90
2023-04-18T02:51:27.614Z,99.90
2023-04-18T02:53:56.936Z,99.90
2023-04-18T02:56:28.500Z,99.90
2023-04-18T02:59:20.049Z,99.90
2023-04-18T03:02:07.704Z,99.90
2023-04-18T03:04:37.273Z,99.90
2023-04-18T03:07:07.486Z,99.90
2023-04-18T03:09:37.508Z,99.90
2023-04-18T03:12:13.407Z,99.90
2023-04-18T03:14:42.384Z,99.90
2023-04-18T03:17:09.930Z,99.90
2023-04-18T03:19:41.022Z,99.90
2023-04-18T03:22:11.219Z,99.90
2023-04-18T03:24:46.028Z,99.90
2023-04-18T03:27:13.761Z,99.90
2023-04-18T03:29:43.246Z,99.90
2023-04-18T03:32:11.465Z,99.90
2023-04-18T03:34:38.850Z,99.90
2023-04-18T03:37:08.542Z,99.90
2023-04-18T03:39:41.705Z,99.90
2023-04-18T03:42:09.211Z,99.90
2023-04-18T03:44:36.654Z,99.90
2023-04-18T03:47:04.768Z,99.90
2023-04-18T03:49:34.736Z,99.90
2023-04-18T03:52:03.492Z,99.90
2023-04-18T03:54:30.928Z,99.90
2023-04-18T03:56:59.447Z,99.90
2023-04-18T03:59:27.727Z,99.90
2023-04-18T04:01:56.177Z,99.90
2023-04-18T04:04:23.733Z,99.90
2023-04-18T04:06:51.716Z,99.90
2023-04-18T04:09:19.209Z,99.90
2023-04-18T04:11:46.630Z,99.90
2023-04-18T04:14:15.961Z,99.90
2023-04-18T04:16:46.419Z,99.90
2023-04-18T04:19:16.835Z,99.90
2023-04-18T04:21:52.981Z,99.90
2023-04-18T04:24:22.679Z,99.90
2023-04-18T04:26:51.470Z,99.90
2023-04-18T04:29:24.275Z,99.90
2023-04-18T04:31:53.109Z,99.90
2023-04-18T04:34:31.086Z,99.90
2023-04-18T04:37:00.836Z,99.90
2023-04-18T04:39:29.573Z,99.90
2023-04-18T04:42:12.259Z,99.90
2023-04-18T04:44:49.355Z,99.90
2023-04-18T04:47:17.511Z,99.90
2023-04-18T04:49:45.168Z,99.90
2023-04-18T04:52:17.558Z,99.90
2023-04-18T04:54:46.572Z,99.90
2023-04-18T04:57:16.413Z,99.90
2023-04-18T04:59:44.232Z,99.90
2023-04-18T05:02:11.765Z,99.90
2023-04-18T05:04:39.361Z,99.90
2023-04-18T05:07:06.799Z,99.90
2023-04-18T05:09:34.193Z,99.90
2023-04-18T05:12:01.931Z,99.90
2023-04-18T05:14:31.391Z,99.90
2023-04-18T05:16:59.516Z,99.90
2023-04-18T05:19:27.502Z,99.90
2023-04-18T05:21:54.900Z,99.90
2023-04-18T05:24:22.249Z,99.90
2023-04-18T05:26:49.668Z,99.90
2023-04-18T05:29:17.095Z,99.90
2023-04-18T05:31:44.549Z,99.90
2023-04-18T05:34:12.367Z,99.90
2023-04-18T05:36:39.962Z,99.90
2023-04-18T05:39:07.360Z,99.90
2023-04-18T05:41:34.831Z,99.90
2023-04-18T05:44:05.706Z,99.90
2023-04-18T05:46:44.541Z,99.90
2023-04-18T05:49:12.363Z,99.90
2023-04-18T05:51:39.755Z,99.90
2023-04-18T05:54:07.148Z,99.90
2023-04-18T05:56:34.596Z,99.90
2023-04-18T05:59:02.063Z,99.90
2023-04-18T06:01:29.423Z,99.90
2023-04-18T06:03:57.025Z,99.90
2023-04-18T06:06:24.868Z,99.90
2023-04-18T06:08:52.276Z,99.90
2023-04-18T06:11:21.274Z,99.90
2023-04-18T06:13:48.691Z,99.90
2023-04-18T06:16:16.240Z,99.90
2023-04-18T06:18:43.607Z,99.90
2023-04-18T06:21:11.032Z,99.00
2023-04-18T06:23:38.608Z,96.30
2023-04-18T06:26:07.438Z,91.20
2023-04-18T06:28:35.016Z,86.30
2023-04-18T06:31:02.622Z,83.30
2023-04-18T06:33:30.090Z,78.90
2023-04-18T06:35:58.053Z,77.00
2023-04-18T06:38:25.445Z,75.60
2023-04-18T06:40:53.021Z,73.50
2023-04-18T06:43:22.014Z,72.60
2023-04-18T06:45:49.438Z,72.70
2023-04-18T06:48:16.949Z,72.50
2023-04-18T06:50:44.837Z,69.10
2023-04-18T06:53:12.314Z,68.10
2023-04-18T06:55:40.791Z,67.00
2023-04-18T06:58:09.698Z,64.40
2023-04-18T07:00:37.029Z,62.60
2023-04-18T07:03:11.310Z,59.20
2023-04-18T07:05:39.896Z,58.00
2023-04-18T07:08:07.561Z,55.60
2023-04-18T07:10:35.006Z,55.20
2023-04-18T07:13:02.537Z,54.80
2023-04-18T07:15:30.066Z,54.60
2023-04-18T07:17:57.499Z,54.00
2023-04-18T07:20:24.879Z,53.90
2023-04-18T07:22:52.244Z,55.30
2023-04-18T07:25:19.763Z,57.60
2023-04-18T07:27:47.730Z,58.20
2023-04-18T07:30:15.348Z,57.90
2023-04-18T07:32:42.776Z,59.40
2023-04-18T07:35:10.589Z,57.80
2023-04-18T07:37:38.147Z,58.50
2023-04-18T07:40:06.271Z,56.70
2023-04-18T07:42:33.632Z,59.20
2023-04-18T07:45:01.035Z,58.60
2023-04-18T07:47:30.183Z,58.40
2023-04-18T07:49:58.271Z,59.20
2023-04-18T07:52:25.856Z,59.50
2023-04-18T07:54:53.305Z,62.80
2023-04-18T07:57:20.881Z,64.40
2023-04-18T07:59:48.329Z,64.50
2023-04-18T08:02:16.267Z,65.60
2023-04-18T08:04:43.833Z,66.10
2023-04-18T08:07:11.377Z,65.10
2023-04-18T08:09:38.961Z,65.70
2023-04-18T08:12:06.629Z,61.50
2023-04-18T08:14:34.061Z,60.40
2023-04-18T08:17:01.537Z,58.20
2023-04-18T08:19:28.911Z,60.40
2023-04-18T08:22:08.383Z,58.80
2023-04-18T08:24:35.933Z,58.00
2023-04-18T08:27:03.510Z,57.10
2023-04-18T08:29:31.213Z,56.90
2023-04-18T08:31:59.626Z,57.40
2023-04-18T08:34:28.834Z,56.30
2023-04-18T08:36:56.694Z,55.70
2023-04-18T08:39:25.414Z,54.90
2023-04-18T08:41:59.561Z,54.30
2023-04-18T08:44:30.668Z,54.30
2023-04-18T08:47:00.158Z,52.30
2023-04-18T08:49:28.396Z,53.60
2023-04-18T08:51:57.532Z,52.90
2023-04-18T08:54:27.309Z,52.70
2023-04-18T08:57:05.627Z,53.50
2023-04-18T08:59:35.708Z,53.30
2023-04-18T09:02:05.499Z,54.10
2023-04-18T09:04:34.492Z,53.00
2023-04-18T09:07:07.353Z,51.50
2023-04-18T09:09:47.553Z,51.50
2023-04-18T09:12:22.466Z,50.30
2023-04-18T09:14:56.613Z,50.20
2023-04-18T09:17:41.701Z,49.80
2023-04-18T09:20:10.912Z,49.70
2023-04-18T09:22:50.638Z,49.80
2023-04-18T09:25:46.728Z,48.70
2023-04-18T09:28:28.084Z,49.30
2023-04-18T09:31:13.403Z,48.90
2023-04-18T09:33:44.809Z,50.10
2023-04-18T09:36:19.710Z,49.80
2023-04-18T09:38:53.856Z,49.50
2023-04-18T09:41:23.695Z,49.80
2023-04-18T09:44:15.870Z,49.60
2023-04-18T09:46:47.098Z,49.70
2023-04-18T09:49:16.987Z,49.60
2023-04-18T09:51:46.064Z,51.50
2023-04-18T09:54:18.213Z,53.30
2023-04-18T09:56:45.937Z,53.20
2023-04-18T09:59:21.125Z,53.10
2023-04-18T10:01:50.883Z,53.80
2023-04-18T10:04:19.160Z,54.00
2023-04-18T10:06:47.037Z,55.20
2023-04-18T10:09:16.091Z,55.90
2023-04-18T10:11:44.364Z,58.00
2023-04-18T10:14:14.727Z,57.80
2023-04-18T10:16:45.458Z,55.70
2023-04-18T10:19:26.801Z,54.40
2023-04-18T10:21:59.589Z,53.20
2023-04-18T10:24:49.481Z,53.70
2023-04-18T10:27:17.850Z,53.50
2023-04-18T10:29:54.505Z,53.80
2023-04-18T10:32:25.076Z,53.90
2023-04-18T10:34:56.160Z,55.50
2023-04-18T10:37:26.672Z,54.30
2023-04-18T10:39:54.057Z,52.60
2023-04-18T10:42:47.272Z,51.90
2023-04-18T10:45:19.115Z,50.20
2023-04-18T10:47:46.716Z,50.20
2023-04-18T10:50:14.936Z,49.50
2023-04-18T10:52:42.708Z,51.10
2023-04-18T10:55:17.769Z,52.10
2023-04-18T10:57:49.165Z,52.40
2023-04-18T11:00:18.932Z,53.80
2023-04-18T11:03:04.961Z,53.90
2023-04-18T11:05:32.450Z,54.90
2023-04-18T11:07:59.891Z,55.60
2023-04-18T11:10:28.019Z,56.00
2023-04-18T11:12:56.528Z,58.40
2023-04-18T11:15:25.468Z,59.10
2023-04-18T11:18:01.109Z,59.10
2023-04-18T11:20:30.126Z,60.40
2023-04-18T11:22:59.263Z,60.00
2023-04-18T11:25:32.033Z,60.80
2023-04-18T11:28:01.161Z,60.10
2023-04-18T11:30:36.303Z,60.00
2023-04-18T11:33:08.793Z,59.40
2023-04-18T11:35:46.161Z,60.00
2023-04-18T11:38:15.832Z,60.20
2023-04-18T11:40:50.768Z,59.90
2023-04-18T11:43:24.022Z,61.40
2023-04-18T11:45:52.731Z,61.70
2023-04-18T11:48:20.169Z,62.20
2023-04-18T11:50:47.650Z,60.90
2023-04-18T11:53:15.315Z,61.40
2023-04-18T11:55:55.003Z,64.10
2023-04-18T11:58:31.973Z,63.00
2023-04-18T12:01:00.695Z,67.40
2023-04-18T12:03:29.749Z,63.90
2023-04-18T12:06:03.816Z,62.80
2023-04-18T12:08:32.377Z,63.80
2023-04-18T12:10:59.828Z,65.40
2023-04-18T12:13:32.494Z,65.60
2023-04-18T12:16:02.520Z,66.40
2023-04-18T12:18:30.060Z,66.60
2023-04-18T12:20:58.594Z,66.90
2023-04-18T12:23:35.891Z,65.40
2023-04-18T12:26:04.015Z,66.00
2023-04-18T12:28:32.263Z,66.50
2023-04-18T12:31:00.348Z,66.60
2023-04-18T12:33:27.894Z,65.00
2023-04-18T12:35:56.109Z,67.00
2023-04-18T12:38:24.052Z,66.30
2023-04-18T12:40:52.123Z,66.10
2023-04-18T12:43:19.936Z,64.70
2023-04-18T12:45:47.549Z,63.60
2023-04-18T12:48:15.039Z,64.30
2023-04-18T12:50:42.449Z,63.80
2023-04-18T12:53:10.226Z,63.70
2023-04-18T12:55:37.969Z,63.20
2023-04-18T12:58:05.493Z,64.00
2023-04-18T13:00:33.212Z,65.80
2023-04-18T13:03:00.918Z,62.80
2023-04-18T13:05:33.108Z,61.70
2023-04-18T13:08:15.409Z,63.00
2023-04-18T13:10:44.193Z,62.10
2023-04-18T13:13:11.632Z,63.00
2023-04-18T13:15:39.212Z,63.10
2023-04-18T13:18:06.945Z,62.90
2023-04-18T13:20:34.824Z,62.30
2023-04-18T13:23:05.536Z,64.10
2023-04-18T13:25:33.053Z,59.90
2023-04-18T13:28:01.063Z,60.20
2023-04-18T13:30:28.956Z,61.20
2023-04-18T13:32:56.917Z,60.60
2023-04-18T13:35:24.480Z,61.40
2023-04-18T13:37:52.032Z,59.60
2023-04-18T13:40:19.496Z,59.80
2023-04-18T13:42:46.885Z,62.00
2023-04-18T13:45:14.278Z,60.00
2023-04-18T13:47:41.801Z,61.80
2023-04-18T13:50:09.643Z,61.80
2023-04-18T13:52:37.048Z,64.60
2023-04-18T13:55:04.963Z,64.10
2023-04-18T13:57:33.525Z,64.20
2023-04-18T14:00:01.292Z,64.70
2023-04-18T14:02:39.527Z,64.40
2023-04-18T14:05:07.455Z,65.00
2023-04-18T14:07:35.333Z,66.70
2023-04-18T14:10:02.735Z,65.10
2023-04-18T14:12:30.128Z,66.10
2023-04-18T14:14:57.566Z,67.00
2023-04-18T14:17:24.954Z,66.70
2023-04-18T14:19:52.349Z,65.40
2023-04-18T14:22:19.756Z,65.20
2023-04-18T14:24:47.577Z,64.00
2023-04-18T14:27:15.050Z,61.40
2023-04-18T14:29:42.488Z,62.50
2023-04-18T14:32:09.849Z,64.70
2023-04-18T14:34:38.200Z,64.00
2023-04-18T14:37:06.427Z,64.00
2023-04-18T14:39:33.849Z,64.30
2023-04-18T14:42:01.527Z,63.40
2023-04-18T14:44:30.798Z,63.20
2023-04-18T14:46:58.208Z,64.50
2023-04-18T14:49:25.628Z,64.90
2023-04-18T14:51:53.042Z,65.70
2023-04-18T14:54:20.543Z,65.70
2023-04-18T14:56:47.917Z,67.00
2023-04-18T14:59:16.619Z,64.10
2023-04-18T15:01:44.521Z,64.20
2023-04-18T15:04:12.104Z,63.70
2023-04-18T15:06:39.787Z,64.90
2023-04-18T15:09:07.356Z,63.80
2023-04-18T15:11:34.715Z,63.90
2023-04-18T15:14:02.138Z,64.50
2023-04-18T15:16:29.550Z,63.50
2023-04-18T15:18:56.973Z,64.40
2023-04-18T15:21:24.384Z,64.20
2023-04-18T15:23:51.745Z,64.00
2023-04-18T15:26:19.156Z,64.40
2023-04-18T15:28:46.615Z,66.70
2023-04-18T15:31:15.596Z,64.70
2023-04-18T15:33:43.025Z,65.10
2023-04-18T15:36:10.539Z,66.20
2023-04-18T15:38:37.994Z,65.00
2023-04-18T15:41:05.574Z,65.00
2023-04-18T15:43:32.935Z,66.50
2023-04-18T15:46:00.321Z,66.50
2023-04-18T15:48:34.175Z,65.60
2023-04-18T15:51:01.630Z,65.70
2023-04-18T15:53:29.277Z,67.40
2023-04-18T15:55:57.293Z,68.50
2023-04-18T15:58:27.722Z,68.30
2023-04-18T16:00:55.126Z,70.70
2023-04-18T16:03:24.639Z,72.20
2023-04-18T16:05:52.263Z,74.10
2023-04-18T16:08:19.697Z,73.70
2023-04-18T16:10:47.156Z,73.00
2023-04-18T16:13:14.661Z,73.90
2023-04-18T16:15:42.792Z,74.60
2023-04-18T16:18:10.767Z,74.70
2023-04-18T16:20:38.289Z,75.40
2023-04-18T16:23:05.931Z,75.80
2023-04-18T16:25:33.267Z,75.80
2023-04-18T16:28:00.778Z,74.20
2023-04-18T16:30:28.174Z,75.00
2023-04-18T16:32:55.772Z,75.30
2023-04-18T16:35:23.353Z,75.90
2023-04-18T16:37:50.716Z,76.40
2023-04-18T16:40:18.903Z,75.00
2023-04-18T16:42:46.906Z,76.20
2023-04-18T16:45:14.372Z,76.40
2023-04-18T16:47:41.753Z,76.50
2023-04-18T16:50:09.509Z,76.60
2023-04-18T16:52:36.878Z,76.40
2023-04-18T16:55:05.050Z,75.30
2023-04-18T16:57:32.704Z,75.30
2023-04-18T17:00:02.173Z,76.00
2023-04-18T17:02:29.863Z,76.10
2023-04-18T17:04:57.615Z,76.20
2023-04-18T17:07:25.049Z,77.00
2023-04-18T17:09:54.892Z,77.90
2023-04-18T17:12:22.942Z,78.20
2023-04-18T17:14:50.362Z,78.20
2023-04-18T17:17:17.714Z,78.30
2023-04-18T17:19:46.023Z,78.90
2023-04-18T17:22:13.380Z,79.60
2023-04-18T17:24:40.796Z,80.30
2023-04-18T17:27:08.154Z,81.10
2023-04-18T17:29:35.779Z,81.20
2023-04-18T17:32:03.244Z,81.60
2023-04-18T17:34:30.886Z,82.20
2023-04-18T17:36:58.228Z,82.20
2023-04-18T17:39:25.679Z,82.90
2023-04-18T17:41:53.096Z,83.40
2023-04-18T17:44:20.736Z,83.70
2023-04-18T17:46:49.996Z,84.20
2023-04-18T17:49:17.938Z,84.50
2023-04-18T17:51:45.610Z,84.90
2023-04-18T17:54:13.635Z,85.40
2023-04-18T17:56:41.204Z,85.90
2023-04-18T17:59:09.804Z,86.20
2023-04-18T18:01:38.049Z,86.70
2023-04-18T18:04:05.913Z,87.20
2023-04-18T18:06:33.352Z,87.90
2023-04-18T18:09:00.734Z,88.40
2023-04-18T18:11:28.151Z,88.90
2023-04-18T18:13:57.377Z,89.60
2023-04-18T18:16:25.170Z,90.00
2023-04-18T18:18:52.666Z,90.10
2023-04-18T18:21:20.072Z,90.40
2023-04-18T18:23:47.467Z,90.70
2023-04-18T18:26:15.105Z,90.90
2023-04-18T18:28:42.542Z,91.20
2023-04-18T18:31:09.947Z,91.50
2023-04-18T18:33:37.395Z,91.80
2023-04-18T18:36:05.529Z,92.40
2023-04-18T18:38:32.880Z,92.30
2023-04-18T18:41:03.023Z,92.50
2023-04-18T18:43:31.617Z,92.60
2023-04-18T18:45:59.078Z,92.80
2023-04-18T18:48:29.811Z,93.20
2023-04-18T18:50:58.300Z,93.60
2023-04-18T18:53:27.161Z,93.70
2023-04-18T18:55:55.505Z,94.00
2023-04-18T18:58:23.122Z,94.00
2023-04-18T19:00:51.193Z,94.20
2023-04-18T19:03:21.273Z,94.50
2023-04-18T19:05:49.721Z,94.50
2023-04-18T19:08:17.241Z,94.70
2023-04-18T19:10:44.648Z,94.80
2023-04-18T19:13:12.056Z,95.10
2023-04-18T19:15:39.469Z,95.30
2023-04-18T19:18:06.839Z,95.30
2023-04-18T19:20:34.314Z,95.40
2023-04-18T19:23:01.732Z,95.60
2023-04-18T19:25:29.126Z,95.90
2023-04-18T19:27:56.504Z,96.10
2023-04-18T19:30:24.998Z,96.30
2023-04-18T19:32:52.496Z,96.40
2023-04-18T19:35:19.930Z,96.70
2023-04-18T19:37:47.323Z,97.10
2023-04-18T19:40:14.743Z,97.30
2023-04-18T19:42:42.176Z,97.40
2023-04-18T19:45:11.890Z,97.40
2023-04-18T19:47:39.298Z,98.20
2023-04-18T19:50:07.544Z,98.40
2023-04-18T19:52:35.092Z,98.50
2023-04-18T19:55:02.508Z,98.80
2023-04-18T19:57:29.918Z,99.20
2023-04-18T19:59:57.336Z,99.70
2023-04-18T20:02:24.801Z,99.80
2023-04-18T20:04:52.469Z,99.90
2023-04-18T20:07:20.209Z,99.90
2023-04-18T20:09:47.565Z,99.90
2023-04-18T20:12:14.979Z,99.90
2023-04-18T20:14:42.391Z,99.90
2023-04-18T20:17:09.860Z,99.90
2023-04-18T20:19:37.419Z,99.90
2023-04-18T20:22:05.935Z,99.90
2023-04-18T20:24:34.663Z,99.90
2023-04-18T20:27:02.117Z,99.90
2023-04-18T20:29:29.576Z,99.90
2023-04-18T20:31:57.083Z,99.90
2023-04-18T20:34:24.647Z,99.90
2023-04-18T20:36:52.900Z,99.90
2023-04-18T20:39:20.277Z,99.90
2023-04-18T20:41:51.384Z,99.90
2023-04-18T20:44:22.270Z,99.90
2023-04-18T20:46:51.964Z,99.90
2023-04-18T20:49:19.436Z,99.90
2023-04-18T20:51:46.915Z,99.90
2023-04-18T20:54:14.696Z,99.90
2023-04-18T20:56:42.342Z,99.90
2023-04-18T20:59:09.789Z,99.90
2023-04-18T21:01:37.405Z,99.90
2023-04-18T21:04:05.101Z,99.90
2023-04-18T21:06:32.892Z,99.90
2023-04-18T21:09:00.701Z,99.90
2023-04-18T21:11:28.075Z,99.90
2023-04-18T21:13:55.561Z,99.90
2023-04-18T21:16:24.101Z,99.90
2023-04-18T21:18:53.074Z,99.90
2023-04-18T21:21:20.461Z,99.90
2023-04-18T21:23:47.794Z,99.90
2023-04-18T21:26:15.440Z,99.90
2023-04-18T21:28:59.955Z,99.90
2023-04-18T21:31:30.430Z,99.90
2023-04-18T21:33:59.974Z,99.90
2023-04-18T21:36:28.850Z,99.90
2023-04-18T21:38:57.462Z,99.90
2023-04-18T21:41:25.460Z,99.90
2023-04-18T21:43:53.583Z,99.90
2023-04-18T21:46:21.409Z,99.90
2023-04-18T21:48:49.003Z,99.90
2023-04-18T21:51:17.358Z,99.90
2023-04-18T21:53:45.114Z,99.90
2023-04-18T21:56:12.752Z,99.90
2023-04-18T21:58:40.183Z,99.90
2023-04-18T22:01:07.801Z,99.90
2023-04-18T22:03:37.074Z,99.90
2023-04-18T22:06:04.810Z,99.90
2023-04-18T22:08:32.547Z,99.90
2023-04-18T22:11:00.356Z,99.90
2023-04-18T22:13:33.144Z,99.90
2023-04-18T22:16:04.781Z,99.90
2023-04-18T22:18:37.947Z,99.90
2023-04-18T22:21:06.115Z,99.90
2023-04-18T22:23:33.626Z,99.90
2023-04-18T22:26:01.301Z,99.90
2023-04-18T22:28:28.829Z,99.90
2023-04-18T22:30:56.667Z,99.90
2023-04-18T22:33:24.660Z,99.90
2023-04-18T22:35:53.384Z,99.90
2023-04-18T22:38:20.874Z,99.90
2023-04-18T22:40:48.270Z,99.90
2023-04-18T22:43:15.675Z,99.90
2023-04-18T22:45:43.115Z,99.90
2023-04-18T22:48:12.741Z,99.90
2023-04-18T22:50:43.103Z,99.90
2023-04-18T22:53:11.180Z,99.90
2023-04-18T22:55:40.403Z,99.90
2023-04-18T22:58:08.486Z,99.90
2023-04-18T23:00:36.314Z,99.90
2023-04-18T23:03:04.384Z,99.90
2023-04-18T23:05:32.094Z,99.90
2023-04-18T23:08:00.533Z,99.90
2023-04-18T23:10:28.398Z,99.90
2023-04-18T23:12:56.409Z,99.90
2023-04-18T23:15:24.599Z,99.90
2023-04-18T23:17:54.938Z,99.90
2023-04-18T23:20:24.072Z,99.90
2023-04-18T23:22:51.902Z,99.90
2023-04-18T23:25:22.299Z,99.90
2023-04-18T23:27:49.710Z,99.90
2023-04-18T23:30:17.298Z,99.90
2023-04-18T23:32:44.906Z,99.90
2023-04-18T23:35:12.404Z,99.90
2023-04-18T23:37:39.853Z,99.90
2023-04-18T23:40:08.151Z,99.90
2023-04-18T23:42:35.961Z,99.90
2023-04-18T23:45:04.218Z,99.90
2023-04-18T23:47:31.772Z,99.90
2023-04-18T23:49:59.377Z,99.90
2023-04-18T23:52:26.838Z,99.90
2023-04-18T23:54:54.283Z,99.90
2023-04-18T23:57:21.875Z,99.90
2023-04-18T23:59:49.259Z,99.90
